N22418 KSAN-
Flight info
| Callsign | N22418 |
|---|---|
| Flight time | N/A |
| Altitude | VFR |
| Route | VFR S +FF |
| Aircraft | C172/L-VGD/C |
Departure
| Time | 2026-04-26 02:31 |
|---|---|
| Airport | San Diego International Airport (KSAN) |
Arrival
| Time | N/A |
|---|---|
| Airport | - |
| Time | Latitude | Longitude | Altitude | Speed | Heading |
|---|---|---|---|---|---|
| 2026-04-26 02:12 | 32.73390 | -117.17871 | 17 ft | 0 kts | 260° |
| 2026-04-26 02:16 | 32.73387 | -117.17887 | 17 ft | 3 kts | 256° |
| 2026-04-26 02:17 | 32.73387 | -117.17889 | 17 ft | 0 kts | 254° |
| 2026-04-26 02:17 | 32.73385 | -117.17896 | 17 ft | 5 kts | 245° |
| 2026-04-26 02:17 | 32.73371 | -117.17922 | 17 ft | 1 kts | 236° |
| 2026-04-26 02:18 | 32.73370 | -117.17923 | 17 ft | 1 kts | 235° |
| 2026-04-26 02:18 | 32.73338 | -117.17956 | 17 ft | 9 kts | 209° |
| 2026-04-26 02:18 | 32.73273 | -117.17980 | 17 ft | 14 kts | 196° |
| 2026-04-26 02:18 | 32.73207 | -117.17879 | 17 ft | 20 kts | 106° |
| 2026-04-26 02:19 | 32.73164 | -117.17697 | 17 ft | 13 kts | 107° |
| 2026-04-26 02:19 | 32.73144 | -117.17627 | 17 ft | 8 kts | 114° |
| 2026-04-26 02:19 | 32.73140 | -117.17614 | 17 ft | 0 kts | 103° |
| 2026-04-26 02:20 | 32.73137 | -117.17598 | 17 ft | 6 kts | 106° |
| 2026-04-26 02:20 | 32.73130 | -117.17581 | 17 ft | 8 kts | 125° |
| 2026-04-26 02:21 | 32.73081 | -117.17543 | 17 ft | 0 kts | 191° |
| 2026-04-26 02:29 | 32.73033 | -117.17555 | 17 ft | 13 kts | 205° |
| 2026-04-26 02:29 | 32.73025 | -117.17606 | 17 ft | 0 kts | 287° |
| 2026-04-26 02:30 | 32.73028 | -117.17615 | 17 ft | 10 kts | 287° |
| 2026-04-26 02:30 | 32.73102 | -117.17908 | 17 ft | 61 kts | 288° |
| 2026-04-26 02:30 | 32.73232 | -117.18539 | 125 ft | 84 kts | 276° |
| 2026-04-26 02:31 | 32.73508 | -117.19091 | 399 ft | 82 kts | 326° |
| 2026-04-26 02:31 | 32.73962 | -117.19522 | 646 ft | 84 kts | 320° |
| 2026-04-26 02:31 | 32.74414 | -117.19963 | 897 ft | 84 kts | 320° |
| 2026-04-26 02:31 | 32.74870 | -117.20408 | 1149 ft | 85 kts | 320° |
| 2026-04-26 02:32 | 32.75330 | -117.20855 | 1387 ft | 86 kts | 320° |
| 2026-04-26 02:32 | 32.75791 | -117.21304 | 1637 ft | 86 kts | 320° |
| 2026-04-26 02:32 | 32.76247 | -117.21748 | 1868 ft | 86 kts | 320° |
| 2026-04-26 02:32 | 32.76711 | -117.22201 | 2107 ft | 86 kts | 320° |
| 2026-04-26 02:33 | 32.77175 | -117.22654 | 2334 ft | 87 kts | 320° |
| 2026-04-26 02:33 | 32.77651 | -117.23116 | 2560 ft | 87 kts | 320° |
| 2026-04-26 02:33 | 32.78120 | -117.23574 | 2786 ft | 87 kts | 320° |
| 2026-04-26 02:33 | 32.78590 | -117.24031 | 3025 ft | 88 kts | 320° |
| 2026-04-26 02:34 | 32.79062 | -117.24493 | 3234 ft | 88 kts | 317° |
| 2026-04-26 02:34 | 32.79117 | -117.25136 | 3428 ft | 89 kts | 229° |
| 2026-04-26 02:34 | 32.78496 | -117.25320 | 3505 ft | 104 kts | 184° |
| 2026-04-26 02:34 | 32.77717 | -117.25390 | 3507 ft | 118 kts | 186° |
| 2026-04-26 02:35 | 32.76872 | -117.25466 | 3503 ft | 124 kts | 186° |
| 2026-04-26 02:35 | 32.76003 | -117.25545 | 3501 ft | 126 kts | 186° |
| 2026-04-26 02:35 | 32.75126 | -117.25624 | 3502 ft | 127 kts | 186° |
| 2026-04-26 02:35 | 32.74244 | -117.25635 | 3501 ft | 127 kts | 179° |
| 2026-04-26 02:36 | 32.73374 | -117.25467 | 3493 ft | 128 kts | 158° |
| 2026-04-26 02:36 | 32.72568 | -117.25007 | 3500 ft | 129 kts | 156° |
| 2026-04-26 02:36 | 32.71754 | -117.24547 | 3497 ft | 129 kts | 156° |
| 2026-04-26 02:36 | 32.70947 | -117.24090 | 3496 ft | 128 kts | 156° |
| 2026-04-26 02:37 | 32.70142 | -117.23634 | 3498 ft | 128 kts | 156° |
| 2026-04-26 02:37 | 32.69338 | -117.23179 | 3497 ft | 128 kts | 156° |
| 2026-04-26 02:37 | 32.68539 | -117.22725 | 3496 ft | 127 kts | 156° |
| 2026-04-26 02:37 | 32.67799 | -117.22155 | 3487 ft | 127 kts | 140° |
| 2026-04-26 02:38 | 32.67137 | -117.21456 | 3486 ft | 127 kts | 140° |
| 2026-04-26 02:38 | 32.66471 | -117.20759 | 3488 ft | 127 kts | 140° |
| 2026-04-26 02:38 | 32.65807 | -117.20064 | 3488 ft | 128 kts | 140° |
| 2026-04-26 02:38 | 32.65161 | -117.19348 | 3487 ft | 127 kts | 138° |
| 2026-04-26 02:39 | 32.64734 | -117.18453 | 3484 ft | 126 kts | 109° |
| 2026-04-26 02:39 | 32.64665 | -117.17442 | 3481 ft | 127 kts | 68° |
| 2026-04-26 02:39 | 32.65326 | -117.16821 | 3485 ft | 125 kts | 13° |
| 2026-04-26 02:39 | 32.66185 | -117.16653 | 3485 ft | 125 kts | 0° |
| 2026-04-26 02:40 | 32.67017 | -117.16916 | 3486 ft | 124 kts | 340° |
| 2026-04-26 02:40 | 32.67841 | -117.17252 | 3488 ft | 126 kts | 340° |
| 2026-04-26 02:40 | 32.68561 | -117.17824 | 3484 ft | 125 kts | 316° |
| 2026-04-26 02:40 | 32.68810 | -117.18754 | 3478 ft | 126 kts | 258° |
| 2026-04-26 02:41 | 32.68412 | -117.19666 | 3485 ft | 125 kts | 240° |
| 2026-04-26 02:41 | 32.67977 | -117.20555 | 3489 ft | 125 kts | 241° |
| 2026-04-26 02:41 | 32.67356 | -117.21227 | 3481 ft | 126 kts | 195° |
| 2026-04-26 02:41 | 32.66535 | -117.20977 | 3482 ft | 126 kts | 146° |
| 2026-04-26 02:42 | 32.65822 | -117.20367 | 3486 ft | 127 kts | 146° |
| 2026-04-26 02:42 | 32.65102 | -117.19759 | 3488 ft | 127 kts | 146° |
| 2026-04-26 02:42 | 32.64381 | -117.19149 | 3491 ft | 127 kts | 146° |
| 2026-04-26 02:42 | 32.63661 | -117.18540 | 3582 ft | 127 kts | 150° |
| 2026-04-26 02:43 | 32.62752 | -117.16780 | 3490 ft | 139 kts | 75° |